Vista del Atlantico, Puerto Rico
Current Conditions -  °F | °C
As of 11:56 AM on Wednesday 26 Nov 2014 (Local Time) from TJSJ Reporting Station
Scattered Clouds Scattered Clouds  
Wind Chill: 83°   Ceiling: Unl
Heat Index: 89°   Visibility: 10mi
Dew Point: 74°   Wind: 16mph
Humidity: 74%   Direction: 80°E
Pressure: 30.03"   Gusts: NA
Location:  18.4051°N, 66.0126°W
Report Text: TJSJ 261556Z 08014KT 10SM SCT035 SCT080 28/23 A3003 RMK AO2 SLP169 T02830233
Loading
Personal Weather Stations






























Interactive Weather Map New forecast layout! Learn more

10-Day Weather Forecast

Advertisements
Track Severe Weather on mobile